sensor_id;sensor_type;location;lat;lon;timestamp;P1;durP1;ratioP1;P2;durP2;ratioP2
63621;SDS011;49770;47.544;19.074;2023-03-01T05:12:55;23.02;;;12.20;;
63621;SDS011;49770;47.544;19.074;2023-03-01T05:16:03;23.50;;;11.95;;
63621;SDS011;49770;47.544;19.074;2023-03-01T05:19:06;22.15;;;11.90;;
63621;SDS011;49770;47.544;19.074;2023-03-01T05:22:20;23.45;;;12.20;;
63621;SDS011;49770;47.544;19.074;2023-03-01T05:25:23;20.33;;;12.02;;
63621;SDS011;49770;47.544;19.074;2023-03-01T05:28:27;23.20;;;12.70;;
63621;SDS011;49770;47.544;19.074;2023-03-01T05:31:30;22.23;;;12.18;;
63621;SDS011;49770;47.544;19.074;2023-03-01T05:34:34;22.13;;;12.37;;
63621;SDS011;49770;47.544;19.074;2023-03-01T05:37:38;24.15;;;11.68;;
63621;SDS011;49770;47.544;19.074;2023-03-01T05:40:48;25.07;;;12.73;;
63621;SDS011;49770;47.544;19.074;2023-03-01T05:43:51;20.42;;;12.07;;
63621;SDS011;49770;47.544;19.074;2023-03-01T05:46:54;22.75;;;12.25;;
63621;SDS011;49770;47.544;19.074;2023-03-01T05:49:57;21.80;;;12.63;;
63621;SDS011;49770;47.544;19.074;2023-03-01T05:53:01;25.50;;;13.60;;
63621;SDS011;49770;47.544;19.074;2023-03-01T05:56:10;25.37;;;13.77;;
63621;SDS011;49770;47.544;19.074;2023-03-01T05:59:13;19.87;;;12.25;;
63621;SDS011;49770;47.544;19.074;2023-03-01T06:02:17;23.33;;;13.45;;
63621;SDS011;49770;47.544;19.074;2023-03-01T06:05:21;22.42;;;12.85;;
63621;SDS011;49770;47.544;19.074;2023-03-01T06:08:24;28.15;;;12.82;;
63621;SDS011;49770;47.544;19.074;2023-03-01T06:11:29;22.65;;;12.40;;
63621;SDS011;49770;47.544;19.074;2023-03-01T06:14:32;22.77;;;12.60;;
63621;SDS011;49770;47.544;19.074;2023-03-01T06:17:35;25.17;;;13.80;;
63621;SDS011;49770;47.544;19.074;2023-03-01T06:20:41;21.42;;;12.45;;
63621;SDS011;49770;47.544;19.074;2023-03-01T06:23:44;22.10;;;13.30;;
63621;SDS011;49770;47.544;19.074;2023-03-01T06:26:47;22.65;;;13.05;;
63621;SDS011;49770;47.544;19.074;2023-03-01T06:29:50;25.73;;;12.90;;
63621;SDS011;49770;47.544;19.074;2023-03-01T06:32:52;20.60;;;12.43;;
63621;SDS011;49770;47.544;19.074;2023-03-01T06:36:03;21.43;;;12.73;;
63621;SDS011;49770;47.544;19.074;2023-03-01T06:39:06;20.58;;;12.65;;
63621;SDS011;49770;47.544;19.074;2023-03-01T06:42:10;23.85;;;13.13;;
63621;SDS011;49770;47.544;19.074;2023-03-01T06:45:13;22.55;;;13.18;;
63621;SDS011;49770;47.544;19.074;2023-03-01T06:48:16;22.65;;;13.50;;
63621;SDS011;49770;47.544;19.074;2023-03-01T06:51:19;24.48;;;13.07;;
63621;SDS011;49770;47.544;19.074;2023-03-01T06:54:25;20.58;;;12.20;;
63621;SDS011;49770;47.544;19.074;2023-03-01T06:57:28;26.27;;;13.75;;
63621;SDS011;49770;47.544;19.074;2023-03-01T07:00:32;25.40;;;13.98;;
63621;SDS011;49770;47.544;19.074;2023-03-01T07:03:35;25.88;;;14.30;;
63621;SDS011;49770;47.544;19.074;2023-03-01T07:06:38;22.13;;;12.77;;
63621;SDS011;49770;47.544;19.074;2023-03-01T07:09:40;24.10;;;13.52;;
63621;SDS011;49770;47.544;19.074;2023-03-01T07:12:44;24.02;;;13.65;;
63621;SDS011;49770;47.544;19.074;2023-03-01T07:15:48;23.40;;;12.98;;
63621;SDS011;49770;47.544;19.074;2023-03-01T07:18:51;25.85;;;14.25;;
63621;SDS011;49770;47.544;19.074;2023-03-01T07:21:54;22.95;;;13.05;;
63621;SDS011;49770;47.544;19.074;2023-03-01T07:24:58;19.80;;;12.98;;
63621;SDS011;49770;47.544;19.074;2023-03-01T07:28:01;27.52;;;14.43;;
63621;SDS011;49770;47.544;19.074;2023-03-01T07:31:05;23.92;;;14.02;;
63621;SDS011;49770;47.544;19.074;2023-03-01T07:34:08;23.42;;;13.90;;
63621;SDS011;49770;47.544;19.074;2023-03-01T07:37:20;26.50;;;15.02;;
63621;SDS011;49770;47.544;19.074;2023-03-01T07:40:24;21.58;;;13.45;;
63621;SDS011;49770;47.544;19.074;2023-03-01T07:43:28;21.87;;;13.60;;
63621;SDS011;49770;47.544;19.074;2023-03-01T07:46:31;22.42;;;13.40;;
63621;SDS011;49770;47.544;19.074;2023-03-01T07:49:34;21.90;;;12.73;;
63621;SDS011;49770;47.544;19.074;2023-03-01T07:52:37;23.80;;;12.93;;
63621;SDS011;49770;47.544;19.074;2023-03-01T07:55:41;20.77;;;12.95;;
63621;SDS011;49770;47.544;19.074;2023-03-01T07:58:44;22.40;;;12.70;;
63621;SDS011;49770;47.544;19.074;2023-03-01T08:01:47;21.17;;;13.23;;
63621;SDS011;49770;47.544;19.074;2023-03-01T08:04:50;20.12;;;12.37;;
63621;SDS011;49770;47.544;19.074;2023-03-01T08:07:53;24.63;;;14.07;;
63621;SDS011;49770;47.544;19.074;2023-03-01T08:10:57;23.17;;;13.93;;
63621;SDS011;49770;47.544;19.074;2023-03-01T08:14:00;26.10;;;12.85;;
63621;SDS011;49770;47.544;19.074;2023-03-01T08:17:03;22.65;;;13.05;;
63621;SDS011;49770;47.544;19.074;2023-03-01T08:20:07;19.92;;;12.73;;
63621;SDS011;49770;47.544;19.074;2023-03-01T08:23:16;20.37;;;12.37;;
63621;SDS011;49770;47.544;19.074;2023-03-01T08:26:19;25.58;;;13.55;;
63621;SDS011;49770;47.544;19.074;2023-03-01T08:29:23;24.67;;;13.13;;
63621;SDS011;49770;47.544;19.074;2023-03-01T08:32:27;20.37;;;13.30;;
63621;SDS011;49770;47.544;19.074;2023-03-01T08:35:30;19.37;;;12.02;;
63621;SDS011;49770;47.544;19.074;2023-03-01T08:38:33;18.23;;;12.05;;
63621;SDS011;49770;47.544;19.074;2023-03-01T08:41:37;19.90;;;11.90;;
63621;SDS011;49770;47.544;19.074;2023-03-01T08:44:40;18.83;;;12.63;;
63621;SDS011;49770;47.544;19.074;2023-03-01T08:47:43;22.08;;;12.50;;
63621;SDS011;49770;47.544;19.074;2023-03-01T08:50:47;20.58;;;12.30;;
63621;SDS011;49770;47.544;19.074;2023-03-01T08:53:50;20.50;;;11.32;;
63621;SDS011;49770;47.544;19.074;2023-03-01T08:56:53;18.85;;;11.60;;
63621;SDS011;49770;47.544;19.074;2023-03-01T08:59:56;20.25;;;11.85;;
63621;SDS011;49770;47.544;19.074;2023-03-01T09:02:59;20.12;;;12.43;;
63621;SDS011;49770;47.544;19.074;2023-03-01T09:06:02;21.55;;;12.27;;
63621;SDS011;49770;47.544;19.074;2023-03-01T09:09:06;21.95;;;12.10;;
63621;SDS011;49770;47.544;19.074;2023-03-01T09:12:18;21.33;;;12.13;;
63621;SDS011;49770;47.544;19.074;2023-03-01T09:15:21;19.42;;;12.18;;
63621;SDS011;49770;47.544;19.074;2023-03-01T09:18:24;20.55;;;11.98;;
63621;SDS011;49770;47.544;19.074;2023-03-01T09:21:27;21.05;;;11.82;;
63621;SDS011;49770;47.544;19.074;2023-03-01T09:24:42;17.77;;;11.48;;
63621;SDS011;49770;47.544;19.074;2023-03-01T09:27:45;22.98;;;12.65;;
63621;SDS011;49770;47.544;19.074;2023-03-01T09:30:49;22.02;;;12.80;;
63621;SDS011;49770;47.544;19.074;2023-03-01T09:33:52;18.10;;;11.95;;
63621;SDS011;49770;47.544;19.074;2023-03-01T09:36:58;19.35;;;12.65;;
63621;SDS011;49770;47.544;19.074;2023-03-01T09:40:01;19.85;;;12.30;;
63621;SDS011;49770;47.544;19.074;2023-03-01T09:43:44;22.27;;;12.32;;
63621;SDS011;49770;47.544;19.074;2023-03-01T09:46:58;17.45;;;11.60;;
63621;SDS011;49770;47.544;19.074;2023-03-01T09:50:12;19.42;;;12.23;;
63621;SDS011;49770;47.544;19.074;2023-03-01T09:53:23;20.20;;;12.98;;
63621;SDS011;49770;47.544;19.074;2023-03-01T09:56:41;20.12;;;12.13;;
63621;SDS011;49770;47.544;19.074;2023-03-01T10:00:12;18.40;;;12.25;;
63621;SDS011;49770;47.544;19.074;2023-03-01T10:03:43;20.25;;;12.07;;
63621;SDS011;49770;47.544;19.074;2023-03-01T10:07:13;18.95;;;12.32;;
63621;SDS011;49770;47.544;19.074;2023-03-01T10:10:34;20.50;;;12.27;;
63621;SDS011;49770;47.544;19.074;2023-03-01T10:23:26;19.92;;;12.57;;
63621;SDS011;49770;47.544;19.074;2023-03-01T10:29:36;19.25;;;12.75;;
63621;SDS011;49770;47.544;19.074;2023-03-01T10:32:46;19.37;;;12.40;;
63621;SDS011;49770;47.544;19.074;2023-03-01T10:35:53;18.77;;;12.48;;
63621;SDS011;49770;47.544;19.074;2023-03-01T10:38:56;19.92;;;12.43;;
63621;SDS011;49770;47.544;19.074;2023-03-01T10:42:04;19.15;;;12.25;;
63621;SDS011;49770;47.544;19.074;2023-03-01T10:48:33;18.40;;;12.98;;
63621;SDS011;49770;47.544;19.074;2023-03-01T10:51:36;17.55;;;11.73;;
63621;SDS011;49770;47.544;19.074;2023-03-01T10:54:42;16.10;;;11.00;;
63621;SDS011;49770;47.544;19.074;2023-03-01T11:08:29;26.85;;;13.45;;
63621;SDS011;49770;47.544;19.074;2023-03-01T11:11:36;18.85;;;12.40;;
63621;SDS011;49770;47.544;19.074;2023-03-01T11:14:39;21.30;;;13.38;;
63621;SDS011;49770;47.544;19.074;2023-03-01T11:17:57;20.35;;;13.68;;
63621;SDS011;49770;47.544;19.074;2023-03-01T11:21:16;20.33;;;13.40;;
63621;SDS011;49770;47.544;19.074;2023-03-01T11:24:19;19.95;;;12.48;;
63621;SDS011;49770;47.544;19.074;2023-03-01T11:27:27;18.73;;;12.27;;
63621;SDS011;49770;47.544;19.074;2023-03-01T11:31:19;18.17;;;12.07;;
63621;SDS011;49770;47.544;19.074;2023-03-01T11:41:25;20.23;;;11.98;;
63621;SDS011;49770;47.544;19.074;2023-03-01T11:44:33;22.73;;;13.70;;
63621;SDS011;49770;47.544;19.074;2023-03-01T11:48:23;19.27;;;12.77;;
63621;SDS011;49770;47.544;19.074;2023-03-01T12:21:20;15.32;;;10.80;;
63621;SDS011;49770;47.544;19.074;2023-03-01T12:35:43;16.02;;;8.68;;
63621;SDS011;49770;47.544;19.074;2023-03-01T12:41:59;14.05;;;9.00;;
63621;SDS011;49770;47.544;19.074;2023-03-01T12:45:20;12.68;;;8.52;;
63621;SDS011;49770;47.544;19.074;2023-03-01T12:51:56;9.80;;;7.82;;
63621;SDS011;49770;47.544;19.074;2023-03-01T12:55:02;12.60;;;8.18;;
63621;SDS011;49770;47.544;19.074;2023-03-01T12:58:24;13.57;;;7.95;;
63621;SDS011;49770;47.544;19.074;2023-03-01T13:01:59;15.50;;;7.60;;
63621;SDS011;49770;47.544;19.074;2023-03-01T13:11:46;12.65;;;7.85;;
63621;SDS011;49770;47.544;19.074;2023-03-01T13:14:49;9.73;;;6.90;;
63621;SDS011;49770;47.544;19.074;2023-03-01T13:21:03;9.27;;;6.97;;
63621;SDS011;49770;47.544;19.074;2023-03-01T13:27:30;7.65;;;5.30;;
63621;SDS011;49770;47.544;19.074;2023-03-01T13:33:43;6.62;;;4.95;;
63621;SDS011;49770;47.544;19.074;2023-03-01T13:36:50;13.40;;;5.37;;
63621;SDS011;49770;47.544;19.074;2023-03-01T13:39:53;9.85;;;5.60;;
63621;SDS011;49770;47.544;19.074;2023-03-01T13:42:56;10.20;;;5.10;;
63621;SDS011;49770;47.544;19.074;2023-03-01T13:46:17;8.75;;;5.25;;
63621;SDS011;49770;47.544;19.074;2023-03-01T13:49:26;7.12;;;4.85;;
63621;SDS011;49770;47.544;19.074;2023-03-01T13:52:54;8.70;;;5.50;;
63621;SDS011;49770;47.544;19.074;2023-03-01T13:56:12;8.52;;;5.00;;
63621;SDS011;49770;47.544;19.074;2023-03-01T13:59:19;10.63;;;5.87;;
63621;SDS011;49770;47.544;19.074;2023-03-01T14:02:24;8.00;;;4.93;;
63621;SDS011;49770;47.544;19.074;2023-03-01T14:05:27;9.77;;;5.72;;
63621;SDS011;49770;47.544;19.074;2023-03-01T14:08:31;7.68;;;5.15;;
63621;SDS011;49770;47.544;19.074;2023-03-01T14:21:12;7.95;;;5.55;;
63621;SDS011;49770;47.544;19.074;2023-03-01T14:24:17;10.40;;;4.85;;
63621;SDS011;49770;47.544;19.074;2023-03-01T14:27:26;7.35;;;5.28;;
63621;SDS011;49770;47.544;19.074;2023-03-01T14:30:41;8.30;;;5.45;;
63621;SDS011;49770;47.544;19.074;2023-03-01T14:33:46;7.35;;;6.03;;
63621;SDS011;49770;47.544;19.074;2023-03-01T14:40:36;7.55;;;5.32;;
63621;SDS011;49770;47.544;19.074;2023-03-01T14:43:44;10.25;;;4.97;;
63621;SDS011;49770;47.544;19.074;2023-03-01T14:46:56;8.63;;;5.18;;
63621;SDS011;49770;47.544;19.074;2023-03-01T14:53:26;10.15;;;4.90;;
63621;SDS011;49770;47.544;19.074;2023-03-01T14:56:42;9.70;;;5.18;;
63621;SDS011;49770;47.544;19.074;2023-03-01T14:59:47;9.90;;;4.95;;
63621;SDS011;49770;47.544;19.074;2023-03-01T15:02:54;8.77;;;5.62;;
63621;SDS011;49770;47.544;19.074;2023-03-01T15:06:03;8.48;;;5.45;;
63621;SDS011;49770;47.544;19.074;2023-03-01T15:09:11;8.93;;;5.30;;
63621;SDS011;49770;47.544;19.074;2023-03-01T15:15:31;7.93;;;5.60;;
63621;SDS011;49770;47.544;19.074;2023-03-01T15:18:44;11.70;;;5.28;;
63621;SDS011;49770;47.544;19.074;2023-03-01T15:21:49;10.80;;;5.05;;
63621;SDS011;49770;47.544;19.074;2023-03-01T15:24:53;8.30;;;5.30;;
63621;SDS011;49770;47.544;19.074;2023-03-01T15:27:57;8.98;;;5.28;;
63621;SDS011;49770;47.544;19.074;2023-03-01T15:31:03;10.00;;;5.12;;
63621;SDS011;49770;47.544;19.074;2023-03-01T15:40:48;13.52;;;5.75;;
63621;SDS011;49770;47.544;19.074;2023-03-01T15:43:52;12.55;;;6.20;;
63621;SDS011;49770;47.544;19.074;2023-03-01T15:46:59;7.90;;;5.20;;
63621;SDS011;49770;47.544;19.074;2023-03-01T15:50:02;11.63;;;5.57;;
63621;SDS011;49770;47.544;19.074;2023-03-01T15:53:10;12.37;;;5.40;;
63621;SDS011;49770;47.544;19.074;2023-03-01T15:56:16;10.93;;;5.35;;
63621;SDS011;49770;47.544;19.074;2023-03-01T15:59:19;11.48;;;5.07;;
63621;SDS011;49770;47.544;19.074;2023-03-01T16:02:24;11.27;;;5.05;;
63621;SDS011;49770;47.544;19.074;2023-03-01T16:05:31;9.85;;;5.37;;
63621;SDS011;49770;47.544;19.074;2023-03-01T16:08:35;11.27;;;5.50;;
63621;SDS011;49770;47.544;19.074;2023-03-01T16:11:39;8.82;;;5.55;;
63621;SDS011;49770;47.544;19.074;2023-03-01T16:14:42;10.88;;;5.78;;
63621;SDS011;49770;47.544;19.074;2023-03-01T16:17:46;12.00;;;6.07;;
63621;SDS011;49770;47.544;19.074;2023-03-01T16:20:56;8.43;;;5.60;;
63621;SDS011;49770;47.544;19.074;2023-03-01T16:23:59;10.65;;;5.85;;
63621;SDS011;49770;47.544;19.074;2023-03-01T16:27:02;13.73;;;6.30;;
63621;SDS011;49770;47.544;19.074;2023-03-01T16:30:06;10.93;;;6.00;;
63621;SDS011;49770;47.544;19.074;2023-03-01T16:33:13;10.90;;;6.00;;
63621;SDS011;49770;47.544;19.074;2023-03-01T16:36:35;8.68;;;5.95;;
63621;SDS011;49770;47.544;19.074;2023-03-01T16:39:38;10.95;;;5.97;;
63621;SDS011;49770;47.544;19.074;2023-03-01T16:42:41;8.80;;;5.53;;
63621;SDS011;49770;47.544;19.074;2023-03-01T16:45:44;10.45;;;5.93;;
63621;SDS011;49770;47.544;19.074;2023-03-01T17:01:59;9.30;;;6.07;;
63621;SDS011;49770;47.544;19.074;2023-03-01T17:05:02;14.73;;;6.15;;
63621;SDS011;49770;47.544;19.074;2023-03-01T17:08:06;10.00;;;6.12;;
